sensor_id;sensor_type;location;lat;lon;timestamp;P1;durP1;ratioP1;P2;durP2;ratioP2
8938;SDS011;4504;48.810;9.172;2023-01-01T00:01:13;130.35;;;12.32;;
8938;SDS011;4504;48.810;9.172;2023-01-01T00:03:58;125.05;;;10.65;;
8938;SDS011;4504;48.810;9.172;2023-01-01T00:06:27;123.60;;;9.80;;
8938;SDS011;4504;48.810;9.172;2023-01-01T00:08:56;123.35;;;9.05;;
8938;SDS011;4504;48.810;9.172;2023-01-01T00:11:40;128.07;;;11.00;;
8938;SDS011;4504;48.810;9.172;2023-01-01T00:14:07;124.00;;;10.65;;
8938;SDS011;4504;48.810;9.172;2023-01-01T00:16:35;123.73;;;10.30;;
8938;SDS011;4504;48.810;9.172;2023-01-01T00:19:02;124.57;;;10.10;;
8938;SDS011;4504;48.810;9.172;2023-01-01T00:21:30;125.50;;;10.37;;
8938;SDS011;4504;48.810;9.172;2023-01-01T00:23:58;118.18;;;7.70;;
8938;SDS011;4504;48.810;9.172;2023-01-01T00:26:26;123.55;;;7.28;;
8938;SDS011;4504;48.810;9.172;2023-01-01T00:28:54;119.13;;;7.20;;
8938;SDS011;4504;48.810;9.172;2023-01-01T00:31:22;118.65;;;6.28;;
8938;SDS011;4504;48.810;9.172;2023-01-01T00:33:56;115.20;;;5.72;;
8938;SDS011;4504;48.810;9.172;2023-01-01T00:36:26;118.07;;;6.75;;
8938;SDS011;4504;48.810;9.172;2023-01-01T00:42:25;117.43;;;5.50;;
8938;SDS011;4504;48.810;9.172;2023-01-01T00:45:09;115.75;;;6.03;;
8938;SDS011;4504;48.810;9.172;2023-01-01T00:47:46;115.85;;;6.07;;
8938;SDS011;4504;48.810;9.172;2023-01-01T00:50:41;114.78;;;4.70;;
8938;SDS011;4504;48.810;9.172;2023-01-01T00:53:08;116.07;;;5.15;;
8938;SDS011;4504;48.810;9.172;2023-01-01T00:55:37;113.97;;;4.70;;
8938;SDS011;4504;48.810;9.172;2023-01-01T00:58:05;112.22;;;4.60;;
8938;SDS011;4504;48.810;9.172;2023-01-01T01:00:32;115.03;;;4.68;;
8938;SDS011;4504;48.810;9.172;2023-01-01T01:02:59;113.57;;;4.30;;
8938;SDS011;4504;48.810;9.172;2023-01-01T01:05:26;114.03;;;4.68;;
8938;SDS011;4504;48.810;9.172;2023-01-01T01:07:55;115.75;;;4.35;;
8938;SDS011;4504;48.810;9.172;2023-01-01T01:10:22;115.30;;;4.90;;
8938;SDS011;4504;48.810;9.172;2023-01-01T01:12:50;114.57;;;5.10;;
8938;SDS011;4504;48.810;9.172;2023-01-01T01:15:17;114.85;;;5.10;;
8938;SDS011;4504;48.810;9.172;2023-01-01T01:17:44;114.40;;;5.38;;
8938;SDS011;4504;48.810;9.172;2023-01-01T01:20:12;118.70;;;5.73;;
8938;SDS011;4504;48.810;9.172;2023-01-01T01:22:39;115.47;;;5.43;;
8938;SDS011;4504;48.810;9.172;2023-01-01T01:25:08;115.03;;;5.18;;
8938;SDS011;4504;48.810;9.172;2023-01-01T01:27:35;116.30;;;5.78;;
8938;SDS011;4504;48.810;9.172;2023-01-01T01:30:03;114.77;;;5.07;;
8938;SDS011;4504;48.810;9.172;2023-01-01T01:32:30;113.45;;;4.47;;
8938;SDS011;4504;48.810;9.172;2023-01-01T01:34:57;114.60;;;5.20;;
8938;SDS011;4504;48.810;9.172;2023-01-01T01:37:24;115.00;;;4.80;;
8938;SDS011;4504;48.810;9.172;2023-01-01T01:39:51;112.38;;;4.20;;
8938;SDS011;4504;48.810;9.172;2023-01-01T01:42:20;114.97;;;4.50;;
8938;SDS011;4504;48.810;9.172;2023-01-01T01:44:52;111.95;;;4.20;;
8938;SDS011;4504;48.810;9.172;2023-01-01T01:47:23;112.82;;;4.32;;
8938;SDS011;4504;48.810;9.172;2023-01-01T01:49:54;113.20;;;4.20;;
8938;SDS011;4504;48.810;9.172;2023-01-01T01:52:25;114.97;;;5.53;;
8938;SDS011;4504;48.810;9.172;2023-01-01T01:54:53;114.03;;;5.03;;
8938;SDS011;4504;48.810;9.172;2023-01-01T01:57:23;113.97;;;5.10;;
8938;SDS011;4504;48.810;9.172;2023-01-01T01:59:51;118.60;;;6.15;;
8938;SDS011;4504;48.810;9.172;2023-01-01T02:02:21;118.80;;;6.15;;
8938;SDS011;4504;48.810;9.172;2023-01-01T02:04:54;112.43;;;4.88;;
8938;SDS011;4504;48.810;9.172;2023-01-01T02:07:21;115.70;;;5.15;;
8938;SDS011;4504;48.810;9.172;2023-01-01T02:09:50;113.68;;;4.60;;
8938;SDS011;4504;48.810;9.172;2023-01-01T02:12:17;119.50;;;4.88;;
8938;SDS011;4504;48.810;9.172;2023-01-01T02:14:45;112.38;;;3.92;;
8938;SDS011;4504;48.810;9.172;2023-01-01T02:17:13;112.95;;;4.00;;
8938;SDS011;4504;48.810;9.172;2023-01-01T02:20:03;111.47;;;3.55;;
8938;SDS011;4504;48.810;9.172;2023-01-01T02:22:49;111.18;;;3.55;;
8938;SDS011;4504;48.810;9.172;2023-01-01T02:25:33;113.10;;;4.38;;
8938;SDS011;4504;48.810;9.172;2023-01-01T02:28:12;112.50;;;4.75;;
8938;SDS011;4504;48.810;9.172;2023-01-01T02:30:47;113.28;;;4.40;;
8938;SDS011;4504;48.810;9.172;2023-01-01T02:33:17;113.60;;;4.43;;
8938;SDS011;4504;48.810;9.172;2023-01-01T02:35:49;112.68;;;3.90;;
8938;SDS011;4504;48.810;9.172;2023-01-01T02:38:22;111.70;;;4.45;;
8938;SDS011;4504;48.810;9.172;2023-01-01T02:40:56;112.63;;;4.80;;
8938;SDS011;4504;48.810;9.172;2023-01-01T02:43:26;114.95;;;4.80;;
8938;SDS011;4504;48.810;9.172;2023-01-01T02:45:54;113.28;;;4.05;;
8938;SDS011;4504;48.810;9.172;2023-01-01T02:48:35;113.40;;;4.10;;
8938;SDS011;4504;48.810;9.172;2023-01-01T02:51:08;113.57;;;5.00;;
8938;SDS011;4504;48.810;9.172;2023-01-01T02:53:42;112.28;;;3.60;;
8938;SDS011;4504;48.810;9.172;2023-01-01T02:56:15;114.55;;;4.30;;
8938;SDS011;4504;48.810;9.172;2023-01-01T02:58:49;112.18;;;3.55;;
8938;SDS011;4504;48.810;9.172;2023-01-01T03:01:45;113.68;;;4.25;;
8938;SDS011;4504;48.810;9.172;2023-01-01T03:04:18;119.07;;;3.88;;
8938;SDS011;4504;48.810;9.172;2023-01-01T03:06:53;112.38;;;3.75;;
8938;SDS011;4504;48.810;9.172;2023-01-01T03:09:26;111.57;;;4.82;;
8938;SDS011;4504;48.810;9.172;2023-01-01T03:12:04;110.18;;;3.90;;
8938;SDS011;4504;48.810;9.172;2023-01-01T03:14:37;112.10;;;4.15;;
8938;SDS011;4504;48.810;9.172;2023-01-01T03:17:11;111.82;;;3.55;;
8938;SDS011;4504;48.810;9.172;2023-01-01T03:19:46;112.60;;;4.80;;
8938;SDS011;4504;48.810;9.172;2023-01-01T03:22:15;114.82;;;4.47;;
8938;SDS011;4504;48.810;9.172;2023-01-01T03:24:44;112.53;;;3.78;;
8938;SDS011;4504;48.810;9.172;2023-01-01T03:27:16;112.57;;;4.43;;
8938;SDS011;4504;48.810;9.172;2023-01-01T03:29:47;117.72;;;4.13;;
8938;SDS011;4504;48.810;9.172;2023-01-01T03:32:21;110.88;;;3.75;;
8938;SDS011;4504;48.810;9.172;2023-01-01T03:35:12;113.97;;;3.92;;
8938;SDS011;4504;48.810;9.172;2023-01-01T03:37:42;112.50;;;4.20;;
8938;SDS011;4504;48.810;9.172;2023-01-01T03:40:12;113.30;;;3.95;;
8938;SDS011;4504;48.810;9.172;2023-01-01T03:42:42;112.80;;;4.07;;
8938;SDS011;4504;48.810;9.172;2023-01-01T03:45:16;112.72;;;4.20;;
8938;SDS011;4504;48.810;9.172;2023-01-01T03:47:48;110.55;;;3.42;;
8938;SDS011;4504;48.810;9.172;2023-01-01T03:50:15;111.50;;;3.67;;
8938;SDS011;4504;48.810;9.172;2023-01-01T03:52:45;114.30;;;4.35;;
8938;SDS011;4504;48.810;9.172;2023-01-01T03:55:23;112.07;;;4.30;;
8938;SDS011;4504;48.810;9.172;2023-01-01T03:57:56;112.20;;;3.83;;
8938;SDS011;4504;48.810;9.172;2023-01-01T04:00:28;112.60;;;3.40;;
8938;SDS011;4504;48.810;9.172;2023-01-01T04:03:03;111.30;;;3.63;;
8938;SDS011;4504;48.810;9.172;2023-01-01T04:05:34;111.75;;;3.40;;
8938;SDS011;4504;48.810;9.172;2023-01-01T04:08:04;112.28;;;3.80;;
8938;SDS011;4504;48.810;9.172;2023-01-01T04:10:33;114.38;;;4.13;;
8938;SDS011;4504;48.810;9.172;2023-01-01T04:13:02;113.60;;;3.60;;
8938;SDS011;4504;48.810;9.172;2023-01-01T04:15:32;114.05;;;4.63;;
8938;SDS011;4504;48.810;9.172;2023-01-01T04:18:01;112.85;;;4.00;;
8938;SDS011;4504;48.810;9.172;2023-01-01T04:20:29;114.53;;;3.80;;
8938;SDS011;4504;48.810;9.172;2023-01-01T04:22:56;113.22;;;4.05;;
8938;SDS011;4504;48.810;9.172;2023-01-01T04:25:23;112.93;;;4.40;;
8938;SDS011;4504;48.810;9.172;2023-01-01T04:27:51;110.82;;;3.70;;
8938;SDS011;4504;48.810;9.172;2023-01-01T04:30:18;111.55;;;3.60;;
8938;SDS011;4504;48.810;9.172;2023-01-01T04:32:45;113.43;;;3.90;;
8938;SDS011;4504;48.810;9.172;2023-01-01T04:35:14;112.00;;;3.53;;
8938;SDS011;4504;48.810;9.172;2023-01-01T04:37:42;115.40;;;4.20;;
8938;SDS011;4504;48.810;9.172;2023-01-01T04:40:10;112.53;;;3.45;;
8938;SDS011;4504;48.810;9.172;2023-01-01T04:42:38;111.10;;;3.33;;
8938;SDS011;4504;48.810;9.172;2023-01-01T04:45:07;112.97;;;3.50;;
8938;SDS011;4504;48.810;9.172;2023-01-01T04:47:36;113.13;;;3.97;;
8938;SDS011;4504;48.810;9.172;2023-01-01T04:50:03;113.97;;;3.80;;
8938;SDS011;4504;48.810;9.172;2023-01-01T04:52:32;113.25;;;3.58;;
8938;SDS011;4504;48.810;9.172;2023-01-01T04:54:59;111.70;;;3.47;;
8938;SDS011;4504;48.810;9.172;2023-01-01T04:57:27;111.60;;;3.50;;
8938;SDS011;4504;48.810;9.172;2023-01-01T04:59:54;112.70;;;3.55;;
8938;SDS011;4504;48.810;9.172;2023-01-01T05:02:22;114.22;;;3.70;;
8938;SDS011;4504;48.810;9.172;2023-01-01T05:04:49;112.13;;;3.50;;
8938;SDS011;4504;48.810;9.172;2023-01-01T05:07:16;111.28;;;3.45;;
8938;SDS011;4504;48.810;9.172;2023-01-01T05:09:44;111.53;;;3.65;;
8938;SDS011;4504;48.810;9.172;2023-01-01T05:12:11;110.72;;;3.50;;
8938;SDS011;4504;48.810;9.172;2023-01-01T05:14:38;112.22;;;3.38;;
8938;SDS011;4504;48.810;9.172;2023-01-01T05:17:05;111.65;;;3.40;;
8938;SDS011;4504;48.810;9.172;2023-01-01T05:19:32;125.70;;;3.50;;
8938;SDS011;4504;48.810;9.172;2023-01-01T05:21:59;110.93;;;3.35;;
8938;SDS011;4504;48.810;9.172;2023-01-01T05:24:26;111.13;;;3.15;;
8938;SDS011;4504;48.810;9.172;2023-01-01T05:26:55;111.03;;;2.92;;
8938;SDS011;4504;48.810;9.172;2023-01-01T05:29:22;111.40;;;3.50;;
8938;SDS011;4504;48.810;9.172;2023-01-01T05:31:49;111.53;;;3.30;;
8938;SDS011;4504;48.810;9.172;2023-01-01T05:34:17;113.70;;;3.20;;
8938;SDS011;4504;48.810;9.172;2023-01-01T05:36:44;111.35;;;3.42;;
8938;SDS011;4504;48.810;9.172;2023-01-01T05:39:11;114.15;;;3.65;;
8938;SDS011;4504;48.810;9.172;2023-01-01T05:41:38;111.22;;;3.20;;
8938;SDS011;4504;48.810;9.172;2023-01-01T05:44:07;112.60;;;3.58;;
8938;SDS011;4504;48.810;9.172;2023-01-01T05:46:35;110.45;;;3.30;;
8938;SDS011;4504;48.810;9.172;2023-01-01T05:49:02;111.50;;;3.20;;
8938;SDS011;4504;48.810;9.172;2023-01-01T05:51:30;111.05;;;3.60;;
8938;SDS011;4504;48.810;9.172;2023-01-01T05:53:57;112.20;;;2.90;;
8938;SDS011;4504;48.810;9.172;2023-01-01T05:56:25;111.15;;;3.50;;
8938;SDS011;4504;48.810;9.172;2023-01-01T05:58:52;113.32;;;3.67;;
8938;SDS011;4504;48.810;9.172;2023-01-01T06:01:21;118.15;;;3.83;;
8938;SDS011;4504;48.810;9.172;2023-01-01T06:03:51;112.88;;;3.40;;
8938;SDS011;4504;48.810;9.172;2023-01-01T06:06:20;111.18;;;3.53;;
8938;SDS011;4504;48.810;9.172;2023-01-01T06:08:49;112.28;;;3.50;;
8938;SDS011;4504;48.810;9.172;2023-01-01T06:11:16;112.97;;;3.50;;
8938;SDS011;4504;48.810;9.172;2023-01-01T06:13:44;114.60;;;3.50;;
8938;SDS011;4504;48.810;9.172;2023-01-01T06:16:11;110.68;;;3.63;;
8938;SDS011;4504;48.810;9.172;2023-01-01T06:18:41;110.63;;;3.13;;
8938;SDS011;4504;48.810;9.172;2023-01-01T06:21:08;111.63;;;3.30;;
8938;SDS011;4504;48.810;9.172;2023-01-01T06:23:36;114.75;;;3.60;;
8938;SDS011;4504;48.810;9.172;2023-01-01T06:26:04;111.65;;;3.47;;
8938;SDS011;4504;48.810;9.172;2023-01-01T06:28:32;110.53;;;3.35;;
8938;SDS011;4504;48.810;9.172;2023-01-01T06:30:59;111.25;;;3.45;;
8938;SDS011;4504;48.810;9.172;2023-01-01T06:33:27;112.28;;;3.58;;
8938;SDS011;4504;48.810;9.172;2023-01-01T06:35:55;114.28;;;3.38;;
8938;SDS011;4504;48.810;9.172;2023-01-01T06:38:22;112.82;;;3.60;;
8938;SDS011;4504;48.810;9.172;2023-01-01T06:40:56;113.90;;;3.90;;
8938;SDS011;4504;48.810;9.172;2023-01-01T06:43:24;111.63;;;3.38;;
8938;SDS011;4504;48.810;9.172;2023-01-01T06:45:58;112.47;;;3.58;;
8938;SDS011;4504;48.810;9.172;2023-01-01T06:48:26;113.88;;;3.58;;
8938;SDS011;4504;48.810;9.172;2023-01-01T06:50:56;111.07;;;3.00;;
8938;SDS011;4504;48.810;9.172;2023-01-01T06:53:23;111.93;;;3.50;;
8938;SDS011;4504;48.810;9.172;2023-01-01T06:55:50;110.68;;;3.20;;
8938;SDS011;4504;48.810;9.172;2023-01-01T06:58:17;110.72;;;3.20;;
8938;SDS011;4504;48.810;9.172;2023-01-01T07:00:44;112.97;;;3.42;;
8938;SDS011;4504;48.810;9.172;2023-01-01T07:03:11;117.40;;;3.80;;
8938;SDS011;4504;48.810;9.172;2023-01-01T07:05:38;111.50;;;3.45;;
8938;SDS011;4504;48.810;9.172;2023-01-01T07:08:07;111.30;;;3.38;;
8938;SDS011;4504;48.810;9.172;2023-01-01T07:10:34;112.15;;;3.33;;
8938;SDS011;4504;48.810;9.172;2023-01-01T07:13:01;111.90;;;3.78;;
8938;SDS011;4504;48.810;9.172;2023-01-01T07:15:28;110.57;;;3.30;;
8938;SDS011;4504;48.810;9.172;2023-01-01T07:17:55;112.30;;;3.22;;
8938;SDS011;4504;48.810;9.172;2023-01-01T07:20:22;112.13;;;3.53;;
8938;SDS011;4504;48.810;9.172;2023-01-01T07:22:50;111.50;;;3.17;;
8938;SDS011;4504;48.810;9.172;2023-01-01T07:25:18;121.10;;;3.53;;
8938;SDS011;4504;48.810;9.172;2023-01-01T07:27:45;111.97;;;3.22;;
8938;SDS011;4504;48.810;9.172;2023-01-01T07:30:12;110.40;;;3.25;;
8938;SDS011;4504;48.810;9.172;2023-01-01T07:32:39;112.38;;;3.80;;
8938;SDS011;4504;48.810;9.172;2023-01-01T07:35:06;111.45;;;3.03;;
8938;SDS011;4504;48.810;9.172;2023-01-01T07:37:34;113.47;;;3.40;;
8938;SDS011;4504;48.810;9.172;2023-01-01T07:40:01;113.72;;;3.92;;
8938;SDS011;4504;48.810;9.172;2023-01-01T07:42:30;111.25;;;3.58;;
8938;SDS011;4504;48.810;9.172;2023-01-01T07:44:56;109.95;;;3.30;;
8938;SDS011;4504;48.810;9.172;2023-01-01T07:47:24;111.90;;;3.60;;
8938;SDS011;4504;48.810;9.172;2023-01-01T07:49:52;111.38;;;3.45;;
8938;SDS011;4504;48.810;9.172;2023-01-01T07:52:19;112.82;;;3.67;;
8938;SDS011;4504;48.810;9.172;2023-01-01T07:54:46;112.18;;;3.33;;
8938;SDS011;4504;48.810;9.172;2023-01-01T07:57:13;111.97;;;3.50;;
8938;SDS011;4504;48.810;9.172;2023-01-01T07:59:42;111.32;;;3.30;;
8938;SDS011;4504;48.810;9.172;2023-01-01T08:02:09;111.93;;;3.33;;
8938;SDS011;4504;48.810;9.172;2023-01-01T08:04:37;111.93;;;3.72;;
8938;SDS011;4504;48.810;9.172;2023-01-01T08:07:05;111.18;;;3.40;;
8938;SDS011;4504;48.810;9.172;2023-01-01T08:09:32;113.22;;;3.40;;
8938;SDS011;4504;48.810;9.172;2023-01-01T08:11:59;114.72;;;3.60;;
8938;SDS011;4504;48.810;9.172;2023-01-01T08:14:26;111.53;;;3.50;;
8938;SDS011;4504;48.810;9.172;2023-01-01T08:16:54;111.28;;;3.47;;
8938;SDS011;4504;48.810;9.172;2023-01-01T08:19:21;111.18;;;3.17;;
8938;SDS011;4504;48.810;9.172;2023-01-01T08:21:48;111.85;;;3.20;;
8938;SDS011;4504;48.810;9.172;2023-01-01T08:24:15;111.65;;;2.92;;
8938;SDS011;4504;48.810;9.172;2023-01-01T08:26:42;111.28;;;3.38;;
8938;SDS011;4504;48.810;9.172;2023-01-01T08:29:09;111.55;;;3.50;;
8938;SDS011;4504;48.810;9.172;2023-01-01T08:31:37;112.57;;;3.30;;
8938;SDS011;4504;48.810;9.172;2023-01-01T08:34:05;110.53;;;3.10;;
8938;SDS011;4504;48.810;9.172;2023-01-01T08:36:32;111.85;;;3.63;;
8938;SDS011;4504;48.810;9.172;2023-01-01T08:39:00;111.88;;;3.60;;
8938;SDS011;4504;48.810;9.172;2023-01-01T08:41:27;111.47;;;3.58;;
8938;SDS011;4504;48.810;9.172;2023-01-01T08:43:54;111.97;;;3.30;;
8938;SDS011;4504;48.810;9.172;2023-01-01T08:46:21;111.57;;;3.20;;
8938;SDS011;4504;48.810;9.172;2023-01-01T08:48:48;111.80;;;3.42;;
8938;SDS011;4504;48.810;9.172;2023-01-01T08:51:16;112.38;;;3.55;;
8938;SDS011;4504;48.810;9.172;2023-01-01T08:53:43;112.53;;;3.30;;
8938;SDS011;4504;48.810;9.172;2023-01-01T08:56:10;110.03;;;2.95;;
8938;SDS011;4504;48.810;9.172;2023-01-01T08:58:40;112.10;;;3.47;;
8938;SDS011;4504;48.810;9.172;2023-01-01T09:01:08;111.95;;;3.50;;
8938;SDS011;4504;48.810;9.172;2023-01-01T09:03:36;112.97;;;3.95;;
8938;SDS011;4504;48.810;9.172;2023-01-01T09:06:03;111.15;;;3.28;;
8938;SDS011;4504;48.810;9.172;2023-01-01T09:08:32;111.68;;;3.50;;
8938;SDS011;4504;48.810;9.172;2023-01-01T09:10:59;112.63;;;3.65;;
8938;SDS011;4504;48.810;9.172;2023-01-01T09:13:28;111.32;;;3.08;;
8938;SDS011;4504;48.810;9.172;2023-01-01T09:15:55;114.70;;;3.40;;
8938;SDS011;4504;48.810;9.172;2023-01-01T09:18:23;110.97;;;2.90;;
8938;SDS011;4504;48.810;9.172;2023-01-01T09:20:50;112.43;;;3.88;;
8938;SDS011;4504;48.810;9.172;2023-01-01T09:23:17;111.53;;;3.60;;
8938;SDS011;4504;48.810;9.172;2023-01-01T09:25:45;111.57;;;3.22;;
8938;SDS011;4504;48.810;9.172;2023-01-01T09:28:12;111.78;;;3.25;;
8938;SDS011;4504;48.810;9.172;2023-01-01T09:30:39;113.63;;;3.28;;
8938;SDS011;4504;48.810;9.172;2023-01-01T09:33:06;110.60;;;3.15;;
8938;SDS011;4504;48.810;9.172;2023-01-01T09:35:33;113.53;;;3.55;;
8938;SDS011;4504;48.810;9.172;2023-01-01T09:38:02;111.95;;;3.05;;
8938;SDS011;4504;48.810;9.172;2023-01-01T09:40:31;111.38;;;3.47;;
8938;SDS011;4504;48.810;9.172;2023-01-01T09:43:12;111.28;;;3.20;;
8938;SDS011;4504;48.810;9.172;2023-01-01T09:45:52;110.88;;;2.97;;
8938;SDS011;4504;48.810;9.172;2023-01-01T09:48:24;111.57;;;3.35;;
8938;SDS011;4504;48.810;9.172;2023-01-01T09:50:53;110.72;;;3.10;;
8938;SDS011;4504;48.810;9.172;2023-01-01T09:53:23;111.35;;;2.88;;
8938;SDS011;4504;48.810;9.172;2023-01-01T09:55:56;111.78;;;3.30;;
8938;SDS011;4504;48.810;9.172;2023-01-01T09:58:26;112.70;;;3.50;;
8938;SDS011;4504;48.810;9.172;2023-01-01T10:00:55;111.80;;;3.30;;
8938;SDS011;4504;48.810;9.172;2023-01-01T10:03:31;110.30;;;3.17;;
8938;SDS011;4504;48.810;9.172;2023-01-01T10:06:07;109.70;;;3.33;;
8938;SDS011;4504;48.810;9.172;2023-01-01T10:08:46;113.07;;;3.87;;
8938;SDS011;4504;48.810;9.172;2023-01-01T10:11:22;112.43;;;3.30;;
8938;SDS011;4504;48.810;9.172;2023-01-01T10:13:57;111.55;;;3.58;;
8938;SDS011;4504;48.810;9.172;2023-01-01T10:16:29;111.13;;;3.10;;
8938;SDS011;4504;48.810;9.172;2023-01-01T10:19:02;111.27;;;3.37;;
8938;SDS011;4504;48.810;9.172;2023-01-01T10:21:45;111.40;;;3.60;;
8938;SDS011;4504;48.810;9.172;2023-01-01T10:24:26;111.32;;;3.22;;
8938;SDS011;4504;48.810;9.172;2023-01-01T10:27:00;111.07;;;2.97;;
8938;SDS011;4504;48.810;9.172;2023-01-01T10:29:34;111.07;;;3.40;;
8938;SDS011;4504;48.810;9.172;2023-01-01T10:32:14;111.50;;;3.20;;
8938;SDS011;4504;48.810;9.172;2023-01-01T10:34:45;113.20;;;3.20;;
8938;SDS011;4504;48.810;9.172;2023-01-01T10:37:13;110.53;;;3.00;;
8938;SDS011;4504;48.810;9.172;2023-01-01T10:39:41;110.70;;;2.80;;
8938;SDS011;4504;48.810;9.172;2023-01-01T10:42:10;113.47;;;3.40;;
8938;SDS011;4504;48.810;9.172;2023-01-01T10:44:40;110.90;;;2.90;;
8938;SDS011;4504;48.810;9.172;2023-01-01T10:47:21;111.40;;;3.20;;
8938;SDS011;4504;48.810;9.172;2023-01-01T10:49:57;111.00;;;3.30;;
8938;SDS011;4504;48.810;9.172;2023-01-01T10:52:26;110.97;;;3.03;;
8938;SDS011;4504;48.810;9.172;2023-01-01T10:54:55;112.03;;;3.30;;
8938;SDS011;4504;48.810;9.172;2023-01-01T10:57:28;111.00;;;2.97;;
8938;SDS011;4504;48.810;9.172;2023-01-01T11:00:19;112.87;;;3.23;;
8938;SDS011;4504;48.810;9.172;2023-01-01T11:03:04;110.07;;;2.93;;
8938;SDS011;4504;48.810;9.172;2023-01-01T11:05:39;114.50;;;3.17;;
8938;SDS011;4504;48.810;9.172;2023-01-01T11:08:25;110.03;;;3.10;;
8938;SDS011;4504;48.810;9.172;2023-01-01T11:10:54;117.70;;;3.40;;
8938;SDS011;4504;48.810;9.172;2023-01-01T11:13:24;111.20;;;3.03;;
8938;SDS011;4504;48.810;9.172;2023-01-01T11:15:53;111.17;;;3.27;;
8938;SDS011;4504;48.810;9.172;2023-01-01T11:18:21;110.57;;;3.33;;
8938;SDS011;4504;48.810;9.172;2023-01-01T11:20:51;112.20;;;3.43;;
8938;SDS011;4504;48.810;9.172;2023-01-01T11:23:26;111.57;;;3.03;;
8938;SDS011;4504;48.810;9.172;2023-01-01T11:25:56;110.17;;;3.20;;
8938;SDS011;4504;48.810;9.172;2023-01-01T11:28:24;110.47;;;3.00;;
8938;SDS011;4504;48.810;9.172;2023-01-01T11:30:58;111.90;;;3.43;;
8938;SDS011;4504;48.810;9.172;2023-01-01T11:33:29;110.90;;;3.13;;
8938;SDS011;4504;48.810;9.172;2023-01-01T11:35:59;113.83;;;3.17;;
8938;SDS011;4504;48.810;9.172;2023-01-01T11:38:26;113.47;;;3.47;;
8938;SDS011;4504;48.810;9.172;2023-01-01T11:40:54;110.20;;;3.07;;
8938;SDS011;4504;48.810;9.172;2023-01-01T11:43:26;110.10;;;3.07;;
8938;SDS011;4504;48.810;9.172;2023-01-01T11:45:55;110.60;;;2.87;;
8938;SDS011;4504;48.810;9.172;2023-01-01T11:48:27;109.87;;;2.90;;
8938;SDS011;4504;48.810;9.172;2023-01-01T11:50:56;113.33;;;3.80;;
8938;SDS011;4504;48.810;9.172;2023-01-01T11:53:27;111.37;;;3.17;;
8938;SDS011;4504;48.810;9.172;2023-01-01T11:56:00;109.20;;;3.00;;
8938;SDS011;4504;48.810;9.172;2023-01-01T11:58:33;113.00;;;3.20;;
8938;SDS011;4504;48.810;9.172;2023-01-01T12:01:11;110.27;;;3.10;;
8938;SDS011;4504;48.810;9.172;2023-01-01T12:03:44;111.17;;;3.93;;
8938;SDS011;4504;48.810;9.172;2023-01-01T12:06:15;109.27;;;2.83;;
8938;SDS011;4504;48.810;9.172;2023-01-01T12:08:47;114.87;;;2.83;;
8938;SDS011;4504;48.810;9.172;2023-01-01T12:11:20;111.33;;;3.30;;
8938;SDS011;4504;48.810;9.172;2023-01-01T12:13:52;110.30;;;2.80;;
8938;SDS011;4504;48.810;9.172;2023-01-01T12:16:30;113.17;;;3.33;;
8938;SDS011;4504;48.810;9.172;2023-01-01T12:19:10;113.30;;;2.90;;
8938;SDS011;4504;48.810;9.172;2023-01-01T12:21:41;110.00;;;2.80;;
8938;SDS011;4504;48.810;9.172;2023-01-01T12:24:11;114.77;;;2.87;;
8938;SDS011;4504;48.810;9.172;2023-01-01T12:26:44;111.07;;;2.70;;
8938;SDS011;4504;48.810;9.172;2023-01-01T12:29:25;110.87;;;3.37;;
8938;SDS011;4504;48.810;9.172;2023-01-01T12:32:13;108.57;;;2.97;;
8938;SDS011;4504;48.810;9.172;2023-01-01T12:34:50;115.80;;;3.40;;
8938;SDS011;4504;48.810;9.172;2023-01-01T12:37:25;109.77;;;2.67;;
8938;SDS011;4504;48.810;9.172;2023-01-01T12:43:04;111.63;;;3.63;;
8938;SDS011;4504;48.810;9.172;2023-01-01T12:48:43;110.17;;;3.07;;
8938;SDS011;4504;48.810;9.172;2023-01-01T12:51:30;110.37;;;3.10;;
8938;SDS011;4504;48.810;9.172;2023-01-01T12:54:10;110.10;;;3.10;;
8938;SDS011;4504;48.810;9.172;2023-01-01T12:56:54;111.03;;;2.67;;
8938;SDS011;4504;48.810;9.172;2023-01-01T12:59:26;110.70;;;3.20;;
8938;SDS011;4504;48.810;9.172;2023-01-01T13:01:56;119.10;;;2.97;;
8938;SDS011;4504;48.810;9.172;2023-01-01T13:04:27;110.43;;;2.80;;
8938;SDS011;4504;48.810;9.172;2023-01-01T13:06:55;109.37;;;2.70;;
8938;SDS011;4504;48.810;9.172;2023-01-01T13:09:28;110.77;;;3.00;;
8938;SDS011;4504;48.810;9.172;2023-01-01T13:11:59;110.40;;;2.60;;
8938;SDS011;4504;48.810;9.172;2023-01-01T13:14:36;109.97;;;2.97;;
8938;SDS011;4504;48.810;9.172;2023-01-01T13:17:04;110.87;;;3.40;;
8938;SDS011;4504;48.810;9.172;2023-01-01T13:19:46;109.10;;;2.80;;
8938;SDS011;4504;48.810;9.172;2023-01-01T13:22:35;109.20;;;2.57;;
8938;SDS011;4504;48.810;9.172;2023-01-01T13:25:16;110.70;;;3.00;;
8938;SDS011;4504;48.810;9.172;2023-01-01T13:28:09;109.97;;;3.23;;
8938;SDS011;4504;48.810;9.172;2023-01-01T13:30:45;108.77;;;2.67;;
8938;SDS011;4504;48.810;9.172;2023-01-01T13:33:16;110.30;;;2.90;;
8938;SDS011;4504;48.810;9.172;2023-01-01T13:38:59;110.67;;;3.47;;
8938;SDS011;4504;48.810;9.172;2023-01-01T13:41:30;109.97;;;3.00;;
8938;SDS011;4504;48.810;9.172;2023-01-01T13:44:15;109.90;;;3.00;;
8938;SDS011;4504;48.810;9.172;2023-01-01T13:46:48;113.57;;;2.93;;
8938;SDS011;4504;48.810;9.172;2023-01-01T13:49:29;110.20;;;2.83;;
8938;SDS011;4504;48.810;9.172;2023-01-01T13:55:21;109.47;;;2.60;;
8938;SDS011;4504;48.810;9.172;2023-01-01T13:58:11;126.10;;;8.50;;
8938;SDS011;4504;48.810;9.172;2023-01-01T14:00:57;115.50;;;6.23;;
8938;SDS011;4504;48.810;9.172;2023-01-01T14:03:45;111.17;;;3.63;;
8938;SDS011;4504;48.810;9.172;2023-01-01T14:06:17;108.97;;;3.17;;
8938;SDS011;4504;48.810;9.172;2023-01-01T14:09:00;108.60;;;2.83;;
8938;SDS011;4504;48.810;9.172;2023-01-01T14:11:30;109.90;;;3.20;;
8938;SDS011;4504;48.810;9.172;2023-01-01T14:13:57;110.33;;;3.00;;
8938;SDS011;4504;48.810;9.172;2023-01-01T14:16:25;110.50;;;3.23;;
8938;SDS011;4504;48.810;9.172;2023-01-01T14:18:54;110.47;;;3.07;;
8938;SDS011;4504;48.810;9.172;2023-01-01T14:21:24;109.20;;;2.50;;
8938;SDS011;4504;48.810;9.172;2023-01-01T14:23:55;109.10;;;2.63;;
8938;SDS011;4504;48.810;9.172;2023-01-01T14:26:26;108.57;;;2.70;;
8938;SDS011;4504;48.810;9.172;2023-01-01T14:28:54;112.57;;;2.90;;
8938;SDS011;4504;48.810;9.172;2023-01-01T14:31:23;109.30;;;2.90;;
8938;SDS011;4504;48.810;9.172;2023-01-01T14:33:53;111.57;;;3.63;;
8938;SDS011;4504;48.810;9.172;2023-01-01T14:36:21;110.40;;;3.40;;
8938;SDS011;4504;48.810;9.172;2023-01-01T14:38:50;110.97;;;3.33;;
8938;SDS011;4504;48.810;9.172;2023-01-01T14:41:19;112.10;;;3.30;;
8938;SDS011;4504;48.810;9.172;2023-01-01T14:43:54;109.90;;;2.77;;
8938;SDS011;4504;48.810;9.172;2023-01-01T14:46:23;109.27;;;3.00;;
8938;SDS011;4504;48.810;9.172;2023-01-01T14:48:52;110.80;;;2.90;;
8938;SDS011;4504;48.810;9.172;2023-01-01T14:51:22;110.50;;;3.10;;
8938;SDS011;4504;48.810;9.172;2023-01-01T14:53:51;109.90;;;3.10;;
8938;SDS011;4504;48.810;9.172;2023-01-01T14:56:22;114.60;;;3.10;;
8938;SDS011;4504;48.810;9.172;2023-01-01T14:58:52;109.77;;;3.17;;
8938;SDS011;4504;48.810;9.172;2023-01-01T15:01:28;109.37;;;3.30;;
8938;SDS011;4504;48.810;9.172;2023-01-01T15:03:56;112.07;;;3.77;;
8938;SDS011;4504;48.810;9.172;2023-01-01T15:06:24;110.40;;;2.90;;
8938;SDS011;4504;48.810;9.172;2023-01-01T15:08:52;111.20;;;3.20;;
8938;SDS011;4504;48.810;9.172;2023-01-01T15:11:19;112.83;;;3.50;;
8938;SDS011;4504;48.810;9.172;2023-01-01T15:13:55;113.40;;;3.00;;
8938;SDS011;4504;48.810;9.172;2023-01-01T15:16:24;117.20;;;3.27;;
8938;SDS011;4504;48.810;9.172;2023-01-01T15:18:52;110.13;;;3.10;;
8938;SDS011;4504;48.810;9.172;2023-01-01T15:21:32;115.10;;;3.30;;
8938;SDS011;4504;48.810;9.172;2023-01-01T15:24:09;110.57;;;3.40;;
8938;SDS011;4504;48.810;9.172;2023-01-01T15:26:39;112.73;;;3.40;;